Fort Fraser, Canada
Current Conditions -  °F | °C
As of 4:00 PM on Wednesday 22 Oct 2014 (Local Time) from CYXS Reporting Station
Clear Clear  
Wind Chill: 52°   Ceiling: Unl
Heat Index: 52°   Visibility: 9mi
Dew Point: 41°   Wind: 7mph
Humidity: 67%   Direction: 50°NE
Pressure: 29.5"   Gusts: NA
Location:  54.05°N, 124.53°W
Report Text: CYXS 222300Z AUTO 05006KT 9SM CLR 11/05 A2950 RMK SLP003 DENSITY ALT 2700FT
Loading
Personal Weather Stations






























Interactive Weather Map
Tropical Storm Tracking
New forecast layout! Learn more

10-Day Weather Forecast

Advertisements
Track Severe Weather on mobile